»·PEaware :: N851TB KSAN-KSMO

N851TB :: KSAN-KSMO

FLIGHT INFORMATION

Flight Status: Arrived
Operator: Privately registered:
United States
More flights under this callsign
Pilot: Zachary J. (11345)
Aircraft: SOCATA TBM-900
(TBM9)
More flights by this aircraft type
Origin: KSAN San Diego Intl-Lindbergh
United States
Destination: KSMO Santa Monica Mun
United States
More flights between these airports :: More routes between these airports
Route: +CWARD2 SLI V459 DARTS
File this flight plan on PilotEdge
Remarks: SANP10R
Altitude:
(Current/Filed)
8,000ft
Speed:
(Current/Filed)
260kts
Departed: 20-Jul-20 10:44 PM
Arrived: 20-Jul-20 11:20 PM
Distance/Time
Traveled:
99nm/0:36
Distance/Time
To Go:
Arrived

Flight Plot

Page will automatically refresh every two minutes.


Map Options




Map Legend


Flown Route
Filed Route
Departure Airport
Arrival Airport
Navaid (VOR, NDB)
Fix

Horizontal Profiles

Position Reports

Time Latitude Longitude Heading Altitude Ground
Speed
20-Jul-20 22:13 32.732162 -117.176903 193 20ft 0kts
20-Jul-20 22:14 32.732162 -117.176903 193 20ft 0kts
20-Jul-20 22:15 32.732162 -117.176903 193 20ft 0kts
20-Jul-20 22:16 32.732162 -117.176903 193 20ft 0kts
20-Jul-20 22:18 32.732162 -117.176903 193 20ft 0kts
20-Jul-20 22:19 32.732162 -117.176903 193 20ft 0kts
20-Jul-20 22:20 32.732162 -117.176903 193 20ft 0kts
20-Jul-20 22:21 32.732162 -117.176903 193 20ft 0kts
20-Jul-20 22:22 32.732162 -117.176903 193 20ft 0kts
20-Jul-20 22:23 32.732162 -117.176903 193 20ft 0kts
20-Jul-20 22:24 32.732162 -117.176903 193 20ft 0kts
20-Jul-20 22:25 32.732162 -117.176903 193 20ft 0kts
20-Jul-20 22:26 32.732162 -117.176903 193 20ft 0kts
20-Jul-20 22:27 32.732162 -117.176903 193 20ft 0kts
20-Jul-20 22:28 32.732162 -117.176903 193 20ft 0kts
20-Jul-20 22:29 32.732162 -117.176903 193 20ft 0kts
20-Jul-20 22:30 32.732162 -117.176903 193 20ft 0kts
20-Jul-20 22:31 32.732162 -117.176903 193 20ft 0kts
20-Jul-20 22:32 32.732162 -117.176903 193 20ft 0kts
20-Jul-20 22:33 32.732014 -117.176947 194 20ft 0kts
20-Jul-20 22:34 32.732014 -117.176947 194 20ft 0kts
20-Jul-20 22:34 32.732014 -117.176947 194 20ft 0kts
20-Jul-20 22:36 32.732014 -117.176947 194 20ft 0kts
20-Jul-20 22:37 32.732014 -117.176947 194 20ft 0kts
20-Jul-20 22:37 32.731931 -117.176972 194 20ft 6kts
20-Jul-20 22:39 32.730944 -117.175515 138 20ft 0kts
20-Jul-20 22:39 32.730944 -117.175515 138 20ft 0kts
20-Jul-20 22:40 32.730944 -117.175515 138 19ft 0kts
20-Jul-20 22:42 32.730944 -117.175515 138 19ft 0kts
20-Jul-20 22:42 32.730569 -117.175241 163 19ft 10kts
20-Jul-20 22:43 32.735178 -117.195809 288 633ft 114kts
20-Jul-20 22:44 32.754192 -117.232249 302 2570ft 139kts
20-Jul-20 22:45 32.774374 -117.270804 302 4876ft 130kts
20-Jul-20 22:46 32.793393 -117.307178 303 6775ft 132kts
20-Jul-20 22:47 32.816353 -117.344311 308 8016ft 169kts
20-Jul-20 22:48 32.850444 -117.397208 308 7982ft 220kts
20-Jul-20 22:49 32.893804 -117.450793 329 7977ft 231kts
20-Jul-20 22:50 32.950208 -117.488952 330 7967ft 234kts
20-Jul-20 22:51 33.007263 -117.527322 330 7965ft 236kts
20-Jul-20 22:52 33.064778 -117.566042 330 7964ft 238kts
20-Jul-20 22:53 33.122593 -117.605020 330 7963ft 240kts
20-Jul-20 22:54 33.180874 -117.644364 330 7976ft 240kts
20-Jul-20 22:55 33.239250 -117.683842 329 7984ft 241kts
20-Jul-20 22:56 33.297549 -117.723332 329 7986ft 241kts
20-Jul-20 22:57 33.356042 -117.763017 329 7987ft 241kts
20-Jul-20 22:58 33.414395 -117.802664 329 7989ft 241kts
20-Jul-20 22:59 33.472866 -117.842454 329 7990ft 241kts
20-Jul-20 23:00 33.531275 -117.882265 329 7990ft 241kts
20-Jul-20 23:01 33.589672 -117.922129 329 7988ft 241kts
20-Jul-20 23:02 33.648000 -117.962009 329 7986ft 241kts
20-Jul-20 23:03 33.706493 -118.002065 329 7984ft 241kts
20-Jul-20 23:04 33.764890 -118.042118 329 7983ft 241kts
20-Jul-20 23:05 33.824884 -118.078621 333 7978ft 242kts
20-Jul-20 23:06 33.885757 -118.113594 333 7976ft 242kts
20-Jul-20 23:07 33.946535 -118.148561 333 7977ft 233kts
20-Jul-20 23:08 33.998495 -118.178533 334 6537ft 200kts
20-Jul-20 23:09 34.048164 -118.207209 334 4709ft 196kts
20-Jul-20 23:10 34.095598 -118.234615 335 4399ft 187kts
20-Jul-20 23:11 34.141146 -118.260961 333 4386ft 171kts
20-Jul-20 23:12 34.140805 -118.302024 208 4393ft 147kts
20-Jul-20 23:13 34.109725 -118.329345 221 3575ft 140kts
20-Jul-20 23:14 34.084111 -118.359585 223 2616ft 97kts
20-Jul-20 23:15 34.063840 -118.385171 224 1379ft 97kts
20-Jul-20 23:16 34.046265 -118.409176 235 1341ft 84kts
20-Jul-20 23:17 34.032331 -118.431565 221 693ft 84kts
20-Jul-20 23:18 34.016470 -118.450508 225 177ft 57kts
20-Jul-20 23:19 34.014968 -118.453229 315 177ft 0kts
20-Jul-20 23:20 34.014968 -118.453229 315 177ft 0kts
20-Jul-20 23:21 34.015784 -118.452879 29 177ft 5kts
20-Jul-20 23:22 34.016637 -118.452378 311 177ft 0kts
20-Jul-20 23:23 34.016637 -118.452378 311 177ft 0kts
20-Jul-20 23:24 34.016637 -118.452378 311 177ft 0kts
20-Jul-20 23:25 34.016637 -118.452378 311 177ft 0kts
20-Jul-20 23:26 34.016637 -118.452378 311 177ft 0kts
20-Jul-20 23:27 34.016637 -118.452378 311 177ft 0kts
20-Jul-20 23:28 34.016637 -118.452378 311 177ft 0kts
20-Jul-20 23:29 34.016637 -118.452378 311 177ft 0kts
20-Jul-20 23:30 34.013248 -118.451584 319 178ft 0kts
20-Jul-20 23:31 34.013248 -118.451584 319 178ft 0kts

Navigation Log

Ident Type
Flight plan parsing failed, navigation log unavailable